createdAt,value
2023-05-24T00:00:51.134Z,153.84
2023-05-24T00:01:51.165Z,153.06
2023-05-24T00:02:51.291Z,153.20
2023-05-24T00:03:51.321Z,152.51
2023-05-24T00:04:51.221Z,152.55
2023-05-24T00:05:51.248Z,152.77
2023-05-24T00:06:51.273Z,153.41
2023-05-24T00:07:51.285Z,152.42
2023-05-24T00:08:51.314Z,152.40
2023-05-24T00:09:51.292Z,152.28
2023-05-24T00:10:51.350Z,152.22
2023-05-24T00:11:51.397Z,151.73
2023-05-24T00:12:51.416Z,152.58
2023-05-24T00:13:51.405Z,152.24
2023-05-24T00:14:51.430Z,150.81
2023-05-24T00:15:51.475Z,151.41
2023-05-24T00:16:51.490Z,150.69
2023-05-24T00:17:51.517Z,151.27
2023-05-24T00:18:51.561Z,150.91
2023-05-24T00:19:51.604Z,151.16
2023-05-24T00:20:51.607Z,151.48
2023-05-24T00:21:51.621Z,150.60
2023-05-24T00:22:51.661Z,150.15
2023-05-24T00:23:51.655Z,150.87
2023-05-24T00:24:51.671Z,150.46
2023-05-24T00:25:51.672Z,150.82
2023-05-24T00:26:51.728Z,150.91
2023-05-24T00:27:51.729Z,151.18
2023-05-24T00:28:51.758Z,150.90
2023-05-24T00:29:51.776Z,150.89
2023-05-24T00:30:51.769Z,150.20
2023-05-24T00:31:51.897Z,149.98
2023-05-24T00:32:51.871Z,150.44
2023-05-24T00:33:51.876Z,150.47
2023-05-24T00:34:51.875Z,149.84
2023-05-24T00:35:51.933Z,150.10
2023-05-24T00:36:51.970Z,149.36
2023-05-24T00:37:51.942Z,149.32
2023-05-24T00:38:51.987Z,149.84
2023-05-24T00:39:52.002Z,149.72
2023-05-24T00:40:51.996Z,149.87
2023-05-24T00:41:52.035Z,149.05
2023-05-24T00:42:52.068Z,148.48
2023-05-24T00:43:52.087Z,148.84
2023-05-24T00:44:52.094Z,149.55
2023-05-24T00:45:52.157Z,149.56
2023-05-24T00:46:52.121Z,149.47
2023-05-24T00:47:52.193Z,148.95
2023-05-24T00:48:52.151Z,148.95
2023-05-24T00:49:52.192Z,147.92
2023-05-24T00:50:52.192Z,147.82
2023-05-24T00:51:52.235Z,148.45
2023-05-24T00:52:52.252Z,148.74
2023-05-24T00:53:52.294Z,149.26
2023-05-24T00:54:52.292Z,148.01
2023-05-24T00:55:52.281Z,147.50
2023-05-24T00:56:52.335Z,147.62
2023-05-24T00:57:52.344Z,147.49
2023-05-24T00:58:52.350Z,148.40
2023-05-24T00:59:52.413Z,148.54
2023-05-24T01:00:52.394Z,147.67
2023-05-24T01:01:52.551Z,148.23
2023-05-24T01:02:52.507Z,147.85
2023-05-24T01:03:52.534Z,148.32
2023-05-24T01:04:52.491Z,147.53
2023-05-24T01:05:52.536Z,148.43
2023-05-24T01:06:52.552Z,147.30
2023-05-24T01:07:52.597Z,147.00
2023-05-24T01:08:52.634Z,147.32
2023-05-24T01:09:52.628Z,147.36
2023-05-24T01:10:52.653Z,147.64
2023-05-24T01:11:52.656Z,147.03
2023-05-24T01:12:52.694Z,146.93
2023-05-24T01:13:52.711Z,146.78
2023-05-24T01:14:52.749Z,146.92
2023-05-24T01:15:52.784Z,146.52
2023-05-24T01:16:52.779Z,147.00
2023-05-24T01:17:52.817Z,147.41
2023-05-24T01:18:52.835Z,146.98
2023-05-24T01:19:52.864Z,145.63
2023-05-24T01:20:52.845Z,146.94
2023-05-24T01:21:52.891Z,146.19
2023-05-24T01:22:52.920Z,145.72
2023-05-24T01:23:52.938Z,146.81
2023-05-24T01:24:52.974Z,145.28
2023-05-24T01:25:52.988Z,146.12
2023-05-24T01:26:53.021Z,145.94
2023-05-24T01:27:53.043Z,146.49
2023-05-24T01:28:53.071Z,145.52
2023-05-24T01:29:53.122Z,145.43
2023-05-24T01:30:53.146Z,146.23
2023-05-24T01:31:53.255Z,145.52
2023-05-24T01:32:53.222Z,144.63
2023-05-24T01:33:53.219Z,145.76
2023-05-24T01:34:53.229Z,145.99
2023-05-24T01:35:53.249Z,144.43
2023-05-24T01:36:53.235Z,144.72
2023-05-24T01:37:53.274Z,145.75
2023-05-24T01:38:53.282Z,145.07
2023-05-24T01:39:53.374Z,144.98
2023-05-24T01:40:53.343Z,145.11
2023-05-24T01:41:53.364Z,145.75
2023-05-24T01:42:53.392Z,144.79
2023-05-24T01:43:53.417Z,144.92
2023-05-24T01:44:53.433Z,145.97
2023-05-24T01:45:53.452Z,144.23
2023-05-24T01:46:53.602Z,145.30
2023-05-24T01:47:53.537Z,143.96
2023-05-24T01:48:53.564Z,144.21
2023-05-24T01:49:53.561Z,143.84
2023-05-24T01:50:53.606Z,144.39
2023-05-24T01:51:53.603Z,145.07
2023-05-24T01:52:53.612Z,144.24
2023-05-24T01:53:53.623Z,144.35
2023-05-24T01:54:53.653Z,144.66
2023-05-24T01:55:53.698Z,143.36
2023-05-24T01:56:53.710Z,143.14
2023-05-24T01:57:53.718Z,144.91
2023-05-24T01:58:53.744Z,143.83
2023-05-24T01:59:53.794Z,144.65
2023-05-24T02:00:53.850Z,143.66
2023-05-24T02:01:53.869Z,144.09
2023-05-24T02:02:53.905Z,143.27
2023-05-24T02:03:53.856Z,143.60
2023-05-24T02:04:53.925Z,144.02
2023-05-24T02:05:53.946Z,142.61
2023-05-24T02:06:53.944Z,143.40
2023-05-24T02:07:53.991Z,143.42
2023-05-24T02:08:54.008Z,143.82
2023-05-24T02:09:54.066Z,144.10
2023-05-24T02:10:54.059Z,143.26
2023-05-24T02:11:54.141Z,143.05
2023-05-24T02:12:54.094Z,143.88
2023-05-24T02:13:54.135Z,142.95
2023-05-24T02:14:54.177Z,144.02
2023-05-24T02:15:54.216Z,143.46
2023-05-24T02:16:54.251Z,142.55
2023-05-24T02:17:54.316Z,142.95
2023-05-24T02:18:54.281Z,143.72
2023-05-24T02:19:54.318Z,143.06
2023-05-24T02:20:54.355Z,142.77
2023-05-24T02:21:54.356Z,142.81
2023-05-24T02:22:54.506Z,143.55
2023-05-24T02:23:54.418Z,142.68
2023-05-24T02:24:54.411Z,142.50
2023-05-24T02:25:54.486Z,141.74
2023-05-24T02:26:54.493Z,142.76
2023-05-24T02:27:54.548Z,141.67
2023-05-24T02:28:54.525Z,142.78
2023-05-24T02:29:54.580Z,142.01
2023-05-24T02:30:54.623Z,142.10
2023-05-24T02:31:54.643Z,142.00
2023-05-24T02:32:54.726Z,142.00
2023-05-24T02:33:54.703Z,141.68
2023-05-24T02:34:54.716Z,141.56
2023-05-24T02:35:54.759Z,142.37
2023-05-24T02:36:54.811Z,141.57
2023-05-24T02:37:54.805Z,141.85
2023-05-24T02:38:54.817Z,142.27
2023-05-24T02:39:54.845Z,141.91
2023-05-24T02:40:54.898Z,141.18
2023-05-24T02:41:54.939Z,142.00
2023-05-24T02:42:54.941Z,143.29
2023-05-24T02:43:55.029Z,142.09
2023-05-24T02:44:54.993Z,141.26
2023-05-24T02:45:55.052Z,141.44
2023-05-24T02:46:55.082Z,141.52
2023-05-24T02:47:55.170Z,142.25
2023-05-24T02:48:55.154Z,141.40
2023-05-24T02:49:55.167Z,141.97
2023-05-24T02:50:55.187Z,141.43
2023-05-24T02:51:55.270Z,141.45
2023-05-24T02:52:55.304Z,140.71
2023-05-24T02:53:55.331Z,141.31
2023-05-24T02:54:55.352Z,140.94
2023-05-24T02:55:55.377Z,140.62
2023-05-24T02:56:55.408Z,141.68
2023-05-24T02:57:55.453Z,141.34
2023-05-24T02:58:55.528Z,141.25
2023-05-24T02:59:55.535Z,140.51
2023-05-24T03:00:55.558Z,140.87
2023-05-24T03:01:55.657Z,141.16
2023-05-24T03:02:55.850Z,140.06
2023-05-24T03:03:55.721Z,140.20
2023-05-24T03:04:55.710Z,140.32
2023-05-24T03:05:55.704Z,140.76
2023-05-24T03:06:55.743Z,139.89
2023-05-24T03:07:55.801Z,140.11
2023-05-24T03:08:55.848Z,140.46
2023-05-24T03:09:55.913Z,140.56
2023-05-24T03:10:55.915Z,139.65
2023-05-24T03:11:55.949Z,139.95
2023-05-24T03:12:55.977Z,139.85
2023-05-24T03:13:56.017Z,140.42
2023-05-24T03:14:56.055Z,140.62
2023-05-24T03:15:56.088Z,139.45
2023-05-24T03:16:56.164Z,140.73
2023-05-24T03:17:56.183Z,140.00
2023-05-24T03:18:56.247Z,140.48
2023-05-24T03:19:56.274Z,140.32
2023-05-24T03:20:56.291Z,141.08
2023-05-24T03:21:56.315Z,141.23
2023-05-24T03:22:56.369Z,140.44
2023-05-24T03:23:56.406Z,140.13
2023-05-24T03:24:56.418Z,139.93
2023-05-24T03:25:56.491Z,140.13
2023-05-24T03:26:56.512Z,140.33
2023-05-24T03:27:56.531Z,139.62
2023-05-24T03:28:56.558Z,139.88
2023-05-24T03:29:56.605Z,139.74
2023-05-24T03:30:56.641Z,140.05
2023-05-24T03:31:56.759Z,139.32
2023-05-24T03:32:56.779Z,139.78
2023-05-24T03:33:56.778Z,139.44
2023-05-24T03:34:56.821Z,139.74
2023-05-24T03:35:56.888Z,139.39
2023-05-24T03:36:56.914Z,140.02
2023-05-24T03:37:56.908Z,139.89
2023-05-24T03:38:56.986Z,139.16
2023-05-24T03:39:57.026Z,138.73
2023-05-24T03:40:57.054Z,139.40
2023-05-24T03:41:57.096Z,139.03
2023-05-24T03:42:57.148Z,139.35
2023-05-24T03:43:57.156Z,139.09
2023-05-24T03:44:57.239Z,139.59
2023-05-24T03:45:57.266Z,139.71
2023-05-24T03:46:57.279Z,139.14
2023-05-24T03:47:57.365Z,139.97
2023-05-24T03:48:57.349Z,139.35
2023-05-24T03:49:57.407Z,138.92
2023-05-24T03:50:57.467Z,139.53
2023-05-24T03:51:57.464Z,138.71
2023-05-24T03:52:57.535Z,139.46
2023-05-24T03:53:57.592Z,139.83
2023-05-24T03:54:57.615Z,139.37
2023-05-24T03:55:57.643Z,138.06
2023-05-24T03:56:57.665Z,138.97
2023-05-24T03:57:57.713Z,139.06
2023-05-24T03:58:57.774Z,139.18
2023-05-24T03:59:57.790Z,139.48
2023-05-24T04:00:57.890Z,138.85
2023-05-24T04:01:57.916Z,138.24
2023-05-24T04:02:57.951Z,134.35
2023-05-24T04:03:57.949Z,129.73
2023-05-24T04:04:57.947Z,127.77
2023-05-24T04:05:57.977Z,123.73
2023-05-24T04:06:57.995Z,119.49
2023-05-24T04:07:57.961Z,115.99
2023-05-24T04:08:57.993Z,109.22
2023-05-24T04:09:58.040Z,101.52
2023-05-24T04:10:58.031Z,95.84
2023-05-24T04:11:58.074Z,89.49
2023-05-24T04:12:58.024Z,83.44
2023-05-24T04:13:58.037Z,79.80
2023-05-24T04:14:58.043Z,78.99
2023-05-24T04:15:58.042Z,71.84
2023-05-24T04:16:58.101Z,67.17
2023-05-24T04:17:58.149Z,62.90
2023-05-24T04:18:58.111Z,60.87
2023-05-24T04:19:58.079Z,57.14
2023-05-24T04:20:58.077Z,53.67
2023-05-24T04:21:58.082Z,45.65
2023-05-24T04:22:58.088Z,50.09
2023-05-24T04:23:58.099Z,46.89
2023-05-24T04:24:58.177Z,45.34
2023-05-24T04:25:58.103Z,40.36
2023-05-24T04:26:58.140Z,41.43
2023-05-24T04:27:58.127Z,42.30
2023-05-24T04:28:58.271Z,37.20
2023-05-24T04:29:58.139Z,33.96
2023-05-24T04:30:58.148Z,31.25
2023-05-24T04:31:58.135Z,38.30
2023-05-24T04:32:58.254Z,39.98
2023-05-24T04:33:58.192Z,39.11
2023-05-24T04:34:58.250Z,43.12
2023-05-24T04:35:58.329Z,46.74
2023-05-24T04:36:58.355Z,48.05
2023-05-24T04:37:58.421Z,51.22
2023-05-24T04:38:58.443Z,53.31
2023-05-24T04:39:58.543Z,53.71
2023-05-24T04:40:58.570Z,57.22
2023-05-24T04:41:58.586Z,59.35
2023-05-24T04:42:58.643Z,60.24
2023-05-24T04:43:58.646Z,61.69
2023-05-24T04:44:58.763Z,64.33
2023-05-24T04:45:58.776Z,65.77
2023-05-24T04:46:58.968Z,67.98
2023-05-24T04:47:58.938Z,67.56
2023-05-24T04:48:58.899Z,69.99
2023-05-24T04:49:58.956Z,71.28
2023-05-24T04:50:58.974Z,72.85
2023-05-24T04:51:59.032Z,73.80
2023-05-24T04:52:59.065Z,76.85
2023-05-24T04:53:59.121Z,77.18
2023-05-24T04:54:59.180Z,78.06
2023-05-24T04:55:59.208Z,78.20
2023-05-24T04:56:59.224Z,81.03
2023-05-24T04:57:59.304Z,82.37
2023-05-24T04:58:59.303Z,83.25
2023-05-24T04:59:59.375Z,85.37
2023-05-24T05:00:59.423Z,84.65
2023-05-24T05:01:59.586Z,84.46
2023-05-24T05:02:59.586Z,85.99
2023-05-24T05:03:59.580Z,86.44
2023-05-24T05:04:59.633Z,86.91
2023-05-24T05:05:59.661Z,87.91
2023-05-24T05:06:59.681Z,86.09
2023-05-24T05:07:59.795Z,86.97
2023-05-24T05:08:59.786Z,85.63
2023-05-24T05:09:59.826Z,86.04
2023-05-24T05:10:59.858Z,86.82
2023-05-24T05:11:59.899Z,85.91
2023-05-24T05:12:59.959Z,85.40
2023-05-24T05:14:00.047Z,85.16
2023-05-24T05:15:00.122Z,85.71
2023-05-24T05:16:00.166Z,86.80
2023-05-24T05:17:00.178Z,87.31
2023-05-24T05:18:00.298Z,87.03
2023-05-24T05:19:00.261Z,86.45
2023-05-24T05:20:00.286Z,88.46
2023-05-24T05:21:00.327Z,86.83
2023-05-24T05:22:00.383Z,86.99
2023-05-24T05:23:00.444Z,88.34
2023-05-24T05:24:00.468Z,89.27
2023-05-24T05:25:00.464Z,89.36
2023-05-24T05:26:00.531Z,89.71
2023-05-24T05:27:00.583Z,90.31
2023-05-24T05:28:00.627Z,89.11
2023-05-24T05:29:00.674Z,90.12
2023-05-24T05:30:00.753Z,89.89
2023-05-24T05:31:00.751Z,90.51
2023-05-24T05:32:00.849Z,91.44
2023-05-24T05:33:00.987Z,91.21
2023-05-24T05:34:00.881Z,90.97
2023-05-24T05:35:00.939Z,91.13
2023-05-24T05:36:00.998Z,92.18
2023-05-24T05:37:01.066Z,93.28
2023-05-24T05:38:01.117Z,94.79
2023-05-24T05:39:01.118Z,96.27
2023-05-24T05:40:01.175Z,99.58
2023-05-24T05:41:01.185Z,102.24
2023-05-24T05:42:01.248Z,95.95
2023-05-24T05:43:01.318Z,92.99
2023-05-24T05:44:01.331Z,89.49
2023-05-24T05:45:01.267Z,91.84
2023-05-24T05:46:01.567Z,88.53
2023-05-24T05:47:01.285Z,91.32
2023-05-24T05:48:01.371Z,93.34
2023-05-24T05:49:01.299Z,94.82
2023-05-24T05:50:01.305Z,97.11
2023-05-24T05:51:01.353Z,95.83
2023-05-24T05:52:01.311Z,97.53
2023-05-24T05:53:01.549Z,98.83
2023-05-24T05:54:01.392Z,101.01
2023-05-24T05:55:01.401Z,101.58
2023-05-24T05:56:01.408Z,100.76
2023-05-24T05:57:01.850Z,98.54
2023-05-24T05:58:01.388Z,97.66
2023-05-24T05:59:01.401Z,93.69
2023-05-24T06:00:01.375Z,90.54
2023-05-24T06:01:01.378Z,88.09
2023-05-24T06:02:01.401Z,85.47
2023-05-24T06:03:01.442Z,83.33
2023-05-24T06:04:01.513Z,81.30
2023-05-24T06:05:01.449Z,79.82
2023-05-24T06:06:01.467Z,80.52
2023-05-24T06:07:01.647Z,77.84
2023-05-24T06:08:01.493Z,77.31
2023-05-24T06:09:01.466Z,74.47
2023-05-24T06:10:01.753Z,71.34
2023-05-24T06:11:01.473Z,69.24
2023-05-24T06:12:01.482Z,69.95
2023-05-24T06:13:01.511Z,68.98
2023-05-24T06:14:01.525Z,66.55
2023-05-24T06:15:01.523Z,63.51
2023-05-24T06:16:01.567Z,61.97
2023-05-24T06:17:01.509Z,61.07
2023-05-24T06:18:01.525Z,66.47
2023-05-24T06:19:06.320Z,63.94
2023-05-24T06:20:01.658Z,59.55
2023-05-24T06:21:01.580Z,60.06
2023-05-24T06:22:01.573Z,57.24
2023-05-24T06:23:01.587Z,55.40
2023-05-24T06:24:01.536Z,50.46
2023-05-24T06:25:01.553Z,49.18
2023-05-24T06:26:01.560Z,48.56
2023-05-24T06:27:02.801Z,49.58
2023-05-24T06:28:01.504Z,48.87
2023-05-24T06:29:01.541Z,54.85
2023-05-24T06:30:01.584Z,56.73
2023-05-24T06:31:01.610Z,47.97
2023-05-24T06:32:01.658Z,40.39
2023-05-24T06:33:01.720Z,26.71
2023-05-24T06:34:04.428Z,31.71
2023-05-24T06:35:01.710Z,25.00
2023-05-24T06:36:01.686Z,25.91
2023-05-24T06:37:01.678Z,29.82
2023-05-24T06:38:01.687Z,25.45
2023-05-24T06:39:01.626Z,25.14
2023-05-24T06:40:01.636Z,27.33
2023-05-24T06:41:01.616Z,26.76
2023-05-24T06:42:01.609Z,33.22
2023-05-24T06:43:01.597Z,27.90
2023-05-24T06:44:01.606Z,30.58
2023-05-24T06:45:01.642Z,30.30
2023-05-24T06:46:01.636Z,32.69
2023-05-24T06:47:01.632Z,37.00
2023-05-24T06:48:01.716Z,35.04
2023-05-24T06:49:01.671Z,36.10
2023-05-24T06:50:01.712Z,37.02
2023-05-24T06:51:01.566Z,35.12
2023-05-24T06:52:01.561Z,38.21
2023-05-24T06:53:01.581Z,41.48
2023-05-24T06:54:01.530Z,40.58
2023-05-24T06:55:02.053Z,41.85
2023-05-24T06:56:01.543Z,44.02
2023-05-24T06:57:01.518Z,48.17
2023-05-24T06:58:01.550Z,47.17
2023-05-24T06:59:01.510Z,44.88
2023-05-24T07:00:01.512Z,46.84
2023-05-24T07:01:01.522Z,47.75
2023-05-24T07:02:03.977Z,48.43
2023-05-24T07:03:01.545Z,48.47
2023-05-24T07:04:01.482Z,48.78
2023-05-24T07:05:01.508Z,48.58
2023-05-24T07:06:01.460Z,50.40
2023-05-24T07:07:01.438Z,48.57
2023-05-24T07:08:01.462Z,46.25
2023-05-24T07:09:01.461Z,46.36
2023-05-24T07:10:01.433Z,45.00
2023-05-24T07:11:01.422Z,45.62
2023-05-24T07:12:01.998Z,47.65
2023-05-24T07:13:01.429Z,46.33
2023-05-24T07:14:01.407Z,45.07
2023-05-24T07:15:01.376Z,46.59
2023-05-24T07:16:01.389Z,45.51
2023-05-24T07:17:01.420Z,44.64
2023-05-24T07:18:01.386Z,42.40
2023-05-24T07:19:03.907Z,43.48
2023-05-24T07:20:01.479Z,43.59
2023-05-24T07:21:01.462Z,43.89
2023-05-24T07:22:01.349Z,40.39
2023-05-24T07:23:01.460Z,41.87
2023-05-24T07:24:01.321Z,44.10
2023-05-24T07:25:01.293Z,43.91
2023-05-24T07:26:01.317Z,43.89
2023-05-24T07:27:01.563Z,42.05
2023-05-24T07:28:01.297Z,45.05
2023-05-24T07:29:01.331Z,46.72
2023-05-24T07:30:01.264Z,45.40
2023-05-24T07:31:01.270Z,49.83
2023-05-24T07:32:01.352Z,47.50
2023-05-24T07:33:01.945Z,46.11
2023-05-24T07:34:01.287Z,45.73
2023-05-24T07:35:01.293Z,43.27
2023-05-24T07:36:01.230Z,41.43
2023-05-24T07:37:01.236Z,43.27
2023-05-24T07:38:01.268Z,42.53
2023-05-24T07:39:01.219Z,40.56
2023-05-24T07:40:01.463Z,40.46
2023-05-24T07:41:01.192Z,41.54
2023-05-24T07:42:01.240Z,34.87
2023-05-24T07:43:02.683Z,32.83
2023-05-24T07:44:01.452Z,35.37
2023-05-24T07:45:01.479Z,38.24
2023-05-24T07:46:01.601Z,38.00
2023-05-24T07:47:01.578Z,30.90
2023-05-24T07:48:01.806Z,31.52
2023-05-24T07:49:01.710Z,30.15
2023-05-24T07:50:01.986Z,29.36
2023-05-24T07:51:01.780Z,31.86
2023-05-24T07:52:01.765Z,35.74
2023-05-24T07:53:01.801Z,41.63
2023-05-24T07:54:01.771Z,38.64
2023-05-24T07:55:01.882Z,40.91
2023-05-24T07:56:01.785Z,36.92
2023-05-24T07:57:02.019Z,40.84
2023-05-24T07:58:01.806Z,44.68
2023-05-24T07:59:01.810Z,42.07
2023-05-24T08:00:01.821Z,41.29
2023-05-24T08:01:01.846Z,38.42
2023-05-24T08:02:01.897Z,32.77
2023-05-24T08:03:02.034Z,29.11
2023-05-24T08:04:01.881Z,33.80
2023-05-24T08:05:01.839Z,34.79
2023-05-24T08:06:01.887Z,35.47
2023-05-24T08:07:01.961Z,32.64
2023-05-24T08:08:01.868Z,27.77
2023-05-24T08:09:01.871Z,26.45
2023-05-24T08:10:01.916Z,25.63
2023-05-24T08:11:01.889Z,25.55
2023-05-24T08:12:01.954Z,26.85
2023-05-24T08:13:01.964Z,25.00
2023-05-24T08:14:01.968Z,27.07
2023-05-24T08:15:02.175Z,25.00
2023-05-24T08:16:02.071Z,33.09
2023-05-24T08:17:02.046Z,25.75
2023-05-24T08:18:02.060Z,25.00
2023-05-24T08:19:02.034Z,25.00
2023-05-24T08:20:02.191Z,30.77
2023-05-24T08:21:02.059Z,26.48
2023-05-24T08:22:02.080Z,30.52
2023-05-24T08:23:02.123Z,33.64
2023-05-24T08:24:02.147Z,29.58
2023-05-24T08:25:02.156Z,29.26
2023-05-24T08:26:02.158Z,25.55
2023-05-24T08:27:02.162Z,27.79
2023-05-24T08:28:02.196Z,29.33
2023-05-24T08:29:02.198Z,27.70
2023-05-24T08:30:02.286Z,30.82
2023-05-24T08:31:02.299Z,31.93
2023-05-24T08:32:02.354Z,28.88
2023-05-24T08:33:02.373Z,25.11
2023-05-24T08:34:02.314Z,28.64
2023-05-24T08:35:14.907Z,31.87
2023-05-24T08:36:03.345Z,31.91
2023-05-24T08:37:02.338Z,31.65
2023-05-24T08:38:02.339Z,33.05
2023-05-24T08:39:02.345Z,33.27
2023-05-24T08:40:02.316Z,37.89
2023-05-24T08:41:02.289Z,40.47
2023-05-24T08:43:02.671Z,36.79
2023-05-24T08:44:02.303Z,38.74
2023-05-24T08:45:02.293Z,38.08
2023-05-24T08:46:02.309Z,40.48
2023-05-24T08:47:02.722Z,42.99
2023-05-24T08:48:02.301Z,37.82
2023-05-24T08:49:02.238Z,40.90
2023-05-24T08:50:02.269Z,39.87
2023-05-24T08:51:02.244Z,38.81
2023-05-24T08:52:02.242Z,41.90
2023-05-24T08:53:02.269Z,37.25
2023-05-24T08:54:02.243Z,42.52
2023-05-24T08:55:02.218Z,45.99
2023-05-24T08:56:02.205Z,45.72
2023-05-24T08:57:02.200Z,42.10
2023-05-24T08:58:02.221Z,41.90
2023-05-24T08:59:02.200Z,39.76
2023-05-24T09:00:02.212Z,41.51
2023-05-24T09:01:02.249Z,40.42
2023-05-24T09:02:02.236Z,37.27
2023-05-24T09:03:02.156Z,34.11
2023-05-24T09:04:02.242Z,28.64
2023-05-24T09:05:02.215Z,32.29
2023-05-24T09:06:02.113Z,31.95
2023-05-24T09:07:02.125Z,32.51
2023-05-24T09:08:02.150Z,31.33
2023-05-24T09:09:02.097Z,32.48
2023-05-24T09:10:02.150Z,25.18
2023-05-24T09:11:02.081Z,28.68
2023-05-24T09:12:02.088Z,34.66
2023-05-24T09:13:02.096Z,34.42
2023-05-24T09:14:02.070Z,36.05
2023-05-24T09:15:02.080Z,33.62
2023-05-24T09:16:02.129Z,32.83
2023-05-24T09:17:02.108Z,29.81
2023-05-24T09:18:02.080Z,30.45
2023-05-24T09:19:02.037Z,34.48
2023-05-24T09:20:02.135Z,35.92
2023-05-24T09:21:02.044Z,33.99
2023-05-24T09:22:02.021Z,29.77
2023-05-24T09:23:02.014Z,29.59
2023-05-24T09:24:02.037Z,25.61
2023-05-24T09:25:02.007Z,25.40
2023-05-24T09:26:02.005Z,26.39
2023-05-24T09:27:02.459Z,26.54
2023-05-24T09:28:01.968Z,29.22
2023-05-24T09:29:01.974Z,30.29
2023-05-24T09:30:01.987Z,28.79
2023-05-24T09:31:03.400Z,28.55
2023-05-24T09:32:01.998Z,28.64
2023-05-24T09:33:01.970Z,28.86
2023-05-24T09:34:01.929Z,28.62
2023-05-24T09:35:02.060Z,29.92
2023-05-24T09:36:01.950Z,28.64
2023-05-24T09:37:01.913Z,28.74
2023-05-24T09:38:01.901Z,26.28
2023-05-24T09:39:01.909Z,25.12
2023-05-24T09:40:01.925Z,25.95
2023-05-24T09:41:01.911Z,25.73
2023-05-24T09:42:01.884Z,26.30
2023-05-24T09:43:01.919Z,28.08
2023-05-24T09:44:01.852Z,29.92
2023-05-24T09:45:01.970Z,29.48
2023-05-24T09:46:02.117Z,29.56
2023-05-24T09:47:01.973Z,29.19
2023-05-24T09:48:01.922Z,30.21
2023-05-24T09:49:01.825Z,28.07
2023-05-24T09:50:01.818Z,28.34
2023-05-24T09:51:01.971Z,28.38
2023-05-24T09:52:01.990Z,28.68
2023-05-24T09:53:01.833Z,29.84
2023-05-24T09:54:01.805Z,37.55
2023-05-24T09:55:01.817Z,46.19
2023-05-24T09:56:01.788Z,48.97
2023-05-24T09:57:03.494Z,50.77
2023-05-24T09:58:01.763Z,51.24
2023-05-24T09:59:01.799Z,53.63
2023-05-24T10:00:01.817Z,59.25
2023-05-24T10:01:01.862Z,70.69
2023-05-24T10:02:01.786Z,81.35
2023-05-24T10:03:01.825Z,86.60
2023-05-24T10:04:01.884Z,79.15
2023-05-24T10:05:01.776Z,80.57
2023-05-24T10:06:01.994Z,88.91
2023-05-24T10:07:01.729Z,95.44
2023-05-24T10:08:01.693Z,101.09
2023-05-24T10:09:01.711Z,106.57
2023-05-24T10:10:01.700Z,104.26
2023-05-24T10:11:01.693Z,100.42
2023-05-24T10:12:01.707Z,99.31
2023-05-24T10:13:01.687Z,98.42
2023-05-24T10:14:01.703Z,100.66
2023-05-24T10:15:01.671Z,103.12
2023-05-24T10:16:01.649Z,108.79
2023-05-24T10:17:01.758Z,111.63
2023-05-24T10:18:01.892Z,111.99
2023-05-24T10:19:02.417Z,112.95
2023-05-24T10:20:01.717Z,114.07
2023-05-24T10:21:01.808Z,113.63
2023-05-24T10:22:01.646Z,116.31
2023-05-24T10:23:02.064Z,120.00
2023-05-24T10:24:01.643Z,121.59
2023-05-24T10:25:01.600Z,127.86
2023-05-24T10:26:01.656Z,134.31
2023-05-24T10:27:01.580Z,133.28
2023-05-24T10:28:01.653Z,135.59
2023-05-24T10:29:01.571Z,137.88
2023-05-24T10:30:01.614Z,143.46
2023-05-24T10:31:01.660Z,140.38
2023-05-24T10:32:01.608Z,140.93
2023-05-24T10:33:01.548Z,139.46
2023-05-24T10:34:07.690Z,140.18
2023-05-24T10:35:02.937Z,140.35
2023-05-24T10:36:01.518Z,140.51
2023-05-24T10:37:01.485Z,140.68
2023-05-24T10:38:01.538Z,139.19
2023-05-24T10:39:01.512Z,138.72
2023-05-24T10:40:01.579Z,136.57
2023-05-24T10:41:01.580Z,139.70
2023-05-24T10:42:01.445Z,143.73
2023-05-24T10:43:01.465Z,147.70
2023-05-24T10:44:09.743Z,151.97
2023-05-24T10:45:02.465Z,152.09
2023-05-24T10:46:01.448Z,153.10
2023-05-24T10:47:01.428Z,155.87
2023-05-24T10:48:01.489Z,159.79
2023-05-24T10:49:01.430Z,164.14
2023-05-24T10:50:01.413Z,167.58
2023-05-24T10:51:01.397Z,162.64
2023-05-24T10:52:01.383Z,161.23
2023-05-24T10:53:01.456Z,162.54
2023-05-24T10:54:01.424Z,168.29
2023-05-24T10:55:04.291Z,169.95
2023-05-24T10:56:01.461Z,163.22
2023-05-24T10:57:01.469Z,163.20
2023-05-24T10:58:01.657Z,159.81
2023-05-24T10:59:01.812Z,159.80
2023-05-24T11:00:01.646Z,148.29
2023-05-24T11:01:01.491Z,149.95
2023-05-24T11:02:01.489Z,146.38
2023-05-24T11:03:01.576Z,144.05
2023-05-24T11:04:01.414Z,137.91
2023-05-24T11:05:01.468Z,135.30
2023-05-24T11:06:01.440Z,133.29
2023-05-24T11:07:01.391Z,130.49
2023-05-24T11:08:01.440Z,128.53
2023-05-24T11:09:01.421Z,125.49
2023-05-24T11:10:01.398Z,125.25
2023-05-24T11:11:11.457Z,121.99
2023-05-24T11:12:02.366Z,122.09
2023-05-24T11:13:01.351Z,122.52
2023-05-24T11:14:01.469Z,126.33
2023-05-24T11:15:01.333Z,128.10
2023-05-24T11:16:01.385Z,131.19
2023-05-24T11:17:01.342Z,133.13
2023-05-24T11:18:01.444Z,129.56
2023-05-24T11:19:01.452Z,127.92
2023-05-24T11:20:01.470Z,126.55
2023-05-24T11:21:01.316Z,118.76
2023-05-24T11:22:01.310Z,123.18
2023-05-24T11:23:01.251Z,110.70
2023-05-24T11:24:01.319Z,101.59
2023-05-24T11:25:01.255Z,94.58
2023-05-24T11:26:01.278Z,90.75
2023-05-24T11:27:01.250Z,85.54
2023-05-24T11:28:01.254Z,85.18
2023-05-24T11:29:04.086Z,82.48
2023-05-24T11:30:01.276Z,82.29
2023-05-24T11:31:01.289Z,83.39
2023-05-24T11:32:01.355Z,80.75
2023-05-24T11:33:01.248Z,79.35
2023-05-24T11:34:01.325Z,74.86
2023-05-24T11:35:01.189Z,73.20
2023-05-24T11:36:01.240Z,73.68
2023-05-24T11:37:01.212Z,67.89
2023-05-24T11:38:01.176Z,69.77
2023-05-24T11:39:01.215Z,71.96
2023-05-24T11:40:01.236Z,73.67
2023-05-24T11:41:01.238Z,76.82
2023-05-24T11:42:01.182Z,77.34
2023-05-24T11:43:01.198Z,74.95
2023-05-24T11:44:01.184Z,75.96
2023-05-24T11:45:01.150Z,76.98
2023-05-24T11:46:01.228Z,76.34
2023-05-24T11:47:01.218Z,73.91
2023-05-24T11:48:01.264Z,73.81
2023-05-24T11:49:01.129Z,74.58
2023-05-24T11:50:01.224Z,70.36
2023-05-24T11:51:01.106Z,69.49
2023-05-24T11:52:01.102Z,69.89
2023-05-24T11:53:01.104Z,71.71
2023-05-24T11:54:01.136Z,70.70
2023-05-24T11:55:01.142Z,69.49
2023-05-24T11:56:01.116Z,74.29
2023-05-24T11:57:01.144Z,73.36
2023-05-24T11:58:01.228Z,72.77
2023-05-24T11:59:01.391Z,82.53
2023-05-24T12:00:01.300Z,92.82
2023-05-24T12:01:01.273Z,100.40
2023-05-24T12:02:01.403Z,100.28
2023-05-24T12:03:01.346Z,103.75
2023-05-24T12:04:01.447Z,105.33
2023-05-24T12:05:01.479Z,108.85
2023-05-24T12:06:01.337Z,111.52
2023-05-24T12:07:01.416Z,116.02
2023-05-24T12:08:01.423Z,117.23
2023-05-24T12:09:01.420Z,116.39
2023-05-24T12:10:01.472Z,119.25
2023-05-24T12:11:01.445Z,120.94
2023-05-24T12:12:01.480Z,121.61
2023-05-24T12:13:01.508Z,122.86
2023-05-24T12:14:01.534Z,126.07
2023-05-24T12:15:01.636Z,127.62
2023-05-24T12:16:01.594Z,130.27
2023-05-24T12:17:01.591Z,133.03
2023-05-24T12:18:01.621Z,134.96
2023-05-24T12:19:07.093Z,135.23
2023-05-24T12:20:02.666Z,135.39
2023-05-24T12:21:01.647Z,135.79
2023-05-24T12:22:01.719Z,136.89
2023-05-24T12:23:01.590Z,138.96
2023-05-24T12:24:01.622Z,139.74
2023-05-24T12:25:01.614Z,140.33
2023-05-24T12:26:01.628Z,141.39
2023-05-24T12:27:01.632Z,142.62
2023-05-24T12:28:01.588Z,143.93
2023-05-24T12:29:01.597Z,143.66
2023-05-24T12:30:01.568Z,146.03
2023-05-24T12:31:01.633Z,147.93
2023-05-24T12:32:01.582Z,148.74
2023-05-24T12:33:01.557Z,149.02
2023-05-24T12:34:01.595Z,148.77
2023-05-24T12:35:01.542Z,149.50
2023-05-24T12:36:01.535Z,151.99
2023-05-24T12:37:01.528Z,152.89
2023-05-24T12:38:01.527Z,154.51
2023-05-24T12:39:01.510Z,154.53
2023-05-24T12:40:01.567Z,154.30
2023-05-24T12:42:01.870Z,156.16
2023-05-24T12:43:01.500Z,157.91